createdAt,value
2024-04-14T00:09:26.880Z,48.60
2024-04-14T00:19:33.963Z,48.34
2024-04-14T00:29:38.846Z,48.74
2024-04-14T00:39:48.776Z,50.54
2024-04-14T00:49:53.017Z,49.66
2024-04-14T01:00:00.234Z,51.29
2024-04-14T01:10:04.638Z,50.37
2024-04-14T01:20:12.803Z,49.42
2024-04-14T01:30:19.663Z,49.76
2024-04-14T01:40:23.850Z,48.69
2024-04-14T01:50:30.608Z,47.79
2024-04-14T02:00:34.903Z,47.37
2024-04-14T02:10:44.946Z,47.80
2024-04-14T02:20:49.177Z,47.35
2024-04-14T02:30:56.551Z,47.19
2024-04-14T02:41:01.493Z,47.64
2024-04-14T02:51:08.405Z,46.88
2024-04-14T03:01:14.998Z,46.24
2024-04-14T03:11:21.878Z,46.49
2024-04-14T03:21:26.337Z,46.05
2024-04-14T03:31:33.343Z,46.36
2024-04-14T03:41:37.560Z,46.90
2024-04-14T03:51:44.394Z,46.95
2024-04-14T04:01:48.668Z,46.65
2024-04-14T04:11:55.480Z,46.99
2024-04-14T04:21:59.683Z,46.72
2024-04-14T04:32:06.739Z,46.40
2024-04-14T04:42:10.962Z,46.49
2024-04-14T04:52:17.770Z,46.95
2024-04-14T05:02:22.065Z,47.19
2024-04-14T05:12:28.945Z,47.42
2024-04-14T05:22:33.131Z,49.37
2024-04-14T05:32:40.674Z,49.63
2024-04-14T05:42:45.202Z,48.24
2024-04-14T05:52:52.042Z,49.03
2024-04-14T06:02:56.351Z,49.42
2024-04-14T06:13:03.220Z,49.81
2024-04-14T06:23:07.628Z,49.86
2024-04-14T06:33:14.475Z,49.52
2024-04-14T06:43:18.792Z,50.18
2024-04-14T06:53:25.608Z,50.19
2024-04-14T07:03:30.858Z,51.51
2024-04-14T07:13:37.877Z,52.05
2024-04-14T07:23:42.199Z,52.59
2024-04-14T07:33:49.022Z,53.45
2024-04-14T07:43:53.443Z,53.19
2024-04-14T07:54:00.416Z,53.25
2024-04-14T08:04:04.827Z,54.10
2024-04-14T08:14:13.402Z,53.46
2024-04-14T08:24:17.577Z,53.99
2024-04-14T08:34:24.532Z,53.89
2024-04-14T08:44:29.774Z,54.36
2024-04-14T08:54:36.763Z,53.57
2024-04-14T09:04:43.534Z,54.02
2024-04-14T09:14:52.663Z,53.93
2024-04-14T09:24:56.897Z,53.96
2024-04-14T09:35:03.752Z,52.68
2024-04-14T09:45:08.600Z,51.15
2024-04-14T09:55:15.389Z,51.43
2024-04-14T10:05:20.590Z,50.04
2024-04-14T10:15:30.005Z,48.59
2024-04-14T10:25:35.535Z,47.96
2024-04-14T10:35:42.394Z,46.64
2024-04-14T10:45:46.639Z,44.89
2024-04-14T10:55:53.464Z,42.55
2024-04-14T11:05:58.008Z,41.53
2024-04-14T11:16:06.611Z,39.46
2024-04-14T11:26:11.029Z,37.40
2024-04-14T11:36:17.805Z,38.12
2024-04-14T11:46:22.045Z,37.08
2024-04-14T11:56:28.861Z,36.43
2024-04-14T12:06:33.761Z,35.54
2024-04-14T12:16:42.836Z,37.12
2024-04-14T12:26:47.146Z,36.22
2024-04-14T12:36:53.962Z,35.01
2024-04-14T12:46:58.217Z,34.48
2024-04-14T12:57:05.336Z,34.45
2024-04-14T13:07:09.618Z,33.45
2024-04-14T13:17:16.507Z,33.04
2024-04-14T13:27:20.740Z,32.24
2024-04-14T13:37:27.602Z,31.49
2024-04-14T13:47:32.761Z,31.95
2024-04-14T13:57:39.629Z,32.12
2024-04-14T14:07:43.865Z,33.51
2024-04-14T14:17:50.731Z,33.41
2024-04-14T14:27:55.014Z,33.54
2024-04-14T14:38:03.783Z,34.08
2024-04-14T14:48:09.323Z,34.74
2024-04-14T14:58:16.199Z,34.37
2024-04-14T15:08:20.451Z,35.96
2024-04-14T15:18:28.085Z,36.32
2024-04-14T15:28:32.335Z,37.44
2024-04-14T15:38:39.917Z,38.20
2024-04-14T15:48:44.365Z,38.72
2024-04-14T15:58:51.561Z,38.67
2024-04-14T16:08:58.026Z,40.08
2024-04-14T16:19:04.922Z,40.36
2024-04-14T16:29:09.277Z,40.53
2024-04-14T16:39:16.086Z,41.03
2024-04-14T16:49:20.399Z,42.85
2024-04-14T16:59:27.386Z,42.75
2024-04-14T17:09:33.255Z,42.45
2024-04-14T17:19:40.077Z,42.97
2024-04-14T17:29:44.261Z,43.84
2024-04-14T17:39:51.322Z,46.73
2024-04-14T17:49:55.580Z,48.80
2024-04-14T18:00:02.493Z,49.79
2024-04-14T18:10:06.983Z,50.64
2024-04-14T18:20:14.820Z,52.18
2024-04-14T18:30:19.323Z,53.00
2024-04-14T18:40:26.177Z,52.72
2024-04-14T18:50:30.372Z,53.51
2024-04-14T19:00:37.342Z,54.35
2024-04-14T19:10:41.683Z,54.86
2024-04-14T19:20:48.549Z,55.61
2024-04-14T19:30:52.795Z,56.66
2024-04-14T19:41:00.792Z,57.25
2024-04-14T19:51:05.144Z,57.24
2024-04-14T20:01:12.039Z,57.79
2024-04-14T20:11:16.298Z,58.71
2024-04-14T20:21:23.150Z,58.51
2024-04-14T20:31:29.407Z,59.43
2024-04-14T20:41:36.178Z,60.24
2024-04-14T20:51:40.369Z,60.08
2024-04-14T21:01:47.223Z,60.11
2024-04-14T21:11:51.429Z,61.22
2024-04-14T21:21:58.807Z,60.53
2024-04-14T21:32:05.875Z,61.33
2024-04-14T21:42:13.274Z,61.89
2024-04-14T21:52:17.727Z,61.96
2024-04-14T22:02:24.654Z,61.40
2024-04-14T22:12:28.980Z,61.91
2024-04-14T22:22:36.242Z,62.33
2024-04-14T22:32:40.484Z,64.03
2024-04-14T22:42:47.412Z,65.02
2024-04-14T22:52:51.587Z,66.37
2024-04-14T23:02:58.465Z,66.92
2024-04-14T23:13:03.424Z,66.76
2024-04-14T23:23:10.297Z,66.62
2024-04-14T23:33:14.534Z,66.59
2024-04-14T23:43:21.445Z,67.31
2024-04-14T23:53:25.658Z,67.52
